createdAt,value
2023-03-26T00:01:36.442Z,97061.60
2023-03-26T00:04:06.717Z,97063.40
2023-03-26T00:06:39.037Z,97063.60
2023-03-26T00:09:10.063Z,97063.60
2023-03-26T00:11:37.375Z,97071.20
2023-03-26T00:14:05.618Z,97069.80
2023-03-26T00:16:34.081Z,97077.20
2023-03-26T00:19:02.524Z,97073.20
2023-03-26T00:21:30.650Z,97067.80
2023-03-26T00:24:07.619Z,97062.40
2023-03-26T00:26:37.761Z,97064.20
2023-03-26T00:29:06.713Z,97069.00
2023-03-26T00:31:35.024Z,97065.80
2023-03-26T00:34:03.937Z,97071.40
2023-03-26T00:36:30.902Z,97073.80
2023-03-26T00:38:57.612Z,97077.40
2023-03-26T00:41:26.766Z,97073.00
2023-03-26T00:43:57.992Z,97074.40
2023-03-26T00:46:27.849Z,97072.40
2023-03-26T00:48:58.686Z,97062.20
2023-03-26T00:51:27.721Z,97060.00
2023-03-26T00:53:55.440Z,97062.80
2023-03-26T00:56:22.103Z,97067.00
2023-03-26T00:58:51.984Z,97062.20
2023-03-26T01:01:29.124Z,97062.80
2023-03-26T01:04:19.348Z,97046.80
2023-03-26T01:06:46.910Z,97049.40
2023-03-26T01:09:18.992Z,97041.60
2023-03-26T01:11:48.103Z,97037.60
2023-03-26T01:14:23.841Z,97035.60
2023-03-26T01:17:01.418Z,97030.40
2023-03-26T01:19:48.471Z,97030.00
2023-03-26T01:22:26.961Z,97020.00
2023-03-26T01:24:56.989Z,97025.60
2023-03-26T01:27:41.012Z,97017.40
2023-03-26T01:30:23.150Z,97018.80
2023-03-26T01:33:07.352Z,97027.40
2023-03-26T01:36:00.523Z,97026.20
2023-03-26T01:38:46.852Z,97024.00
2023-03-26T01:41:41.617Z,97024.60
2023-03-26T01:44:27.390Z,97023.60
2023-03-26T01:46:55.675Z,97022.00
2023-03-26T01:49:22.737Z,97023.20
2023-03-26T01:51:51.246Z,97022.80
2023-03-26T01:54:23.920Z,97026.40
2023-03-26T01:57:18.658Z,97016.60
2023-03-26T01:59:57.459Z,97022.40
2023-03-26T02:03:22.310Z,97017.60
2023-03-26T02:06:11.367Z,97020.40
2023-03-26T02:08:47.553Z,97015.40
2023-03-26T02:11:16.645Z,97012.20
2023-03-26T02:13:46.158Z,97015.20
2023-03-26T02:16:16.699Z,97012.40
2023-03-26T02:18:46.140Z,97014.20
2023-03-26T02:21:21.371Z,97013.00
2023-03-26T02:24:03.326Z,97006.80
2023-03-26T02:26:35.754Z,97007.40
2023-03-26T02:29:07.992Z,97004.60
2023-03-26T02:31:35.787Z,97002.20
2023-03-26T02:34:02.687Z,96999.80
2023-03-26T02:36:31.287Z,96999.80
2023-03-26T02:39:00.250Z,97000.20
2023-03-26T02:41:27.468Z,97003.00
2023-03-26T02:43:57.931Z,97004.40
2023-03-26T02:46:35.640Z,97011.60
2023-03-26T02:49:37.436Z,97011.80
2023-03-26T02:52:06.660Z,97011.20
2023-03-26T02:54:35.150Z,97004.80
2023-03-26T02:57:17.374Z,97011.20
2023-03-26T03:00:06.443Z,97015.60
2023-03-26T03:02:38.688Z,97012.40
2023-03-26T03:05:31.564Z,97008.20
2023-03-26T03:08:18.561Z,97002.80
2023-03-26T03:11:27.014Z,97002.20
2023-03-26T03:13:54.734Z,97002.20
2023-03-26T03:16:29.886Z,97000.40
2023-03-26T03:18:59.138Z,97000.00
2023-03-26T03:21:33.963Z,97000.60
2023-03-26T03:24:00.712Z,96995.20
2023-03-26T03:26:29.967Z,96994.00
2023-03-26T03:28:58.320Z,96990.60
2023-03-26T03:31:26.738Z,96985.60
2023-03-26T03:33:56.882Z,96986.20
2023-03-26T03:36:27.826Z,96980.20
2023-03-26T03:39:02.495Z,96977.20
2023-03-26T03:41:29.884Z,96973.40
2023-03-26T03:43:58.991Z,96983.80
2023-03-26T03:46:28.539Z,96979.20
2023-03-26T03:48:56.067Z,96981.80
2023-03-26T03:51:32.925Z,96985.40
2023-03-26T03:54:01.901Z,96984.40
2023-03-26T03:56:51.817Z,96979.60
2023-03-26T03:59:48.040Z,96986.40
2023-03-26T04:02:30.186Z,96981.20
2023-03-26T04:04:58.968Z,96976.60
2023-03-26T04:07:31.177Z,96975.00
2023-03-26T04:10:09.567Z,96974.60
2023-03-26T04:12:56.114Z,96976.00
2023-03-26T04:15:36.497Z,96972.00
2023-03-26T04:18:03.841Z,96965.20
2023-03-26T04:20:32.248Z,96966.80
2023-03-26T04:22:59.284Z,96966.20
2023-03-26T04:25:30.436Z,96963.80
2023-03-26T04:28:08.579Z,96963.00
2023-03-26T04:31:02.128Z,96955.80
2023-03-26T04:33:36.233Z,96958.00
2023-03-26T04:36:05.250Z,96957.20
2023-03-26T04:38:49.182Z,96950.60
2023-03-26T04:41:16.830Z,96946.00
2023-03-26T04:43:54.529Z,96946.40
2023-03-26T04:46:47.355Z,96949.20
2023-03-26T04:49:22.024Z,96950.00
2023-03-26T04:51:48.777Z,96949.80
2023-03-26T04:54:39.629Z,96952.80
2023-03-26T04:57:19.063Z,96943.60
2023-03-26T04:59:50.142Z,96942.60
2023-03-26T05:02:18.206Z,96940.00
2023-03-26T05:04:51.132Z,96940.60
2023-03-26T05:07:25.051Z,96941.20
2023-03-26T05:09:54.250Z,96939.00
2023-03-26T05:12:23.298Z,96939.00
2023-03-26T05:14:55.968Z,96938.80
2023-03-26T05:17:34.828Z,96936.40
2023-03-26T05:20:02.011Z,96938.20
2023-03-26T05:22:28.968Z,96938.20
2023-03-26T05:25:12.107Z,96937.00
2023-03-26T05:27:39.331Z,96934.40
2023-03-26T05:30:07.785Z,96933.20
2023-03-26T05:32:40.776Z,96936.00
2023-03-26T05:35:08.678Z,96929.40
2023-03-26T05:37:35.729Z,96919.60
2023-03-26T05:40:11.690Z,96925.00
2023-03-26T05:42:46.322Z,96926.80
2023-03-26T05:45:34.719Z,96926.00
2023-03-26T05:48:10.325Z,96929.40
2023-03-26T05:50:37.111Z,96931.80
2023-03-26T05:53:04.122Z,96929.20
2023-03-26T05:55:59.518Z,96934.60
2023-03-26T05:58:44.804Z,96934.60
2023-03-26T06:01:47.281Z,96928.80
2023-03-26T06:04:32.774Z,96929.40
2023-03-26T06:07:19.913Z,96928.60
2023-03-26T06:09:58.963Z,96929.20
2023-03-26T06:12:25.739Z,96925.20
2023-03-26T06:14:52.382Z,96925.60
2023-03-26T06:17:24.409Z,96924.80
2023-03-26T06:20:15.387Z,96925.00
2023-03-26T06:22:45.264Z,96924.40
2023-03-26T06:25:48.305Z,96923.20
2023-03-26T06:28:24.955Z,96922.20
2023-03-26T06:31:12.902Z,96915.00
2023-03-26T06:33:44.095Z,96917.60
2023-03-26T06:36:12.605Z,96914.00
2023-03-26T06:38:39.609Z,96910.20
2023-03-26T06:41:08.020Z,96909.80
2023-03-26T06:43:39.089Z,96905.60
2023-03-26T06:46:06.458Z,96903.00
2023-03-26T06:48:42.205Z,96902.20
2023-03-26T06:51:19.022Z,96897.40
2023-03-26T06:54:04.656Z,96898.20
2023-03-26T06:56:51.271Z,96897.60
2023-03-26T06:59:36.824Z,96896.20
2023-03-26T07:02:22.525Z,96893.80
2023-03-26T07:05:27.654Z,96887.00
2023-03-26T07:08:13.125Z,96889.80
2023-03-26T07:11:02.677Z,96891.40
2023-03-26T07:13:47.961Z,96890.00
2023-03-26T07:16:33.495Z,96883.80
2023-03-26T07:19:21.381Z,96878.60
2023-03-26T07:21:48.978Z,96876.00
2023-03-26T07:24:41.799Z,96876.40
2023-03-26T07:27:23.501Z,96874.60
2023-03-26T07:30:04.870Z,96869.60
2023-03-26T07:32:52.782Z,96865.00
2023-03-26T07:35:41.784Z,96859.80
2023-03-26T07:38:47.660Z,96860.40
2023-03-26T07:41:51.203Z,96856.20
2023-03-26T07:44:51.161Z,96848.20
2023-03-26T07:47:42.299Z,96845.60
2023-03-26T07:50:36.018Z,96845.00
2023-03-26T07:53:32.205Z,96841.80
2023-03-26T07:56:38.135Z,96836.00
2023-03-26T07:59:40.240Z,96826.00
2023-03-26T08:03:07.738Z,96820.20
2023-03-26T08:06:18.001Z,96810.00
2023-03-26T08:09:27.590Z,96804.60
2023-03-26T08:12:40.713Z,96798.80
2023-03-26T08:15:38.059Z,96796.20
2023-03-26T08:18:14.612Z,96793.00
2023-03-26T08:20:54.812Z,96787.40
2023-03-26T08:23:50.960Z,96778.00
2023-03-26T08:26:32.082Z,96776.60
2023-03-26T08:29:20.211Z,96771.40
2023-03-26T08:31:49.411Z,96764.40
2023-03-26T08:34:16.328Z,96751.00
2023-03-26T08:36:43.028Z,96748.20
2023-03-26T08:39:09.790Z,96749.60
2023-03-26T08:42:00.905Z,96744.00
2023-03-26T08:45:01.925Z,96744.20
2023-03-26T08:48:09.661Z,96740.80
2023-03-26T08:51:21.991Z,96737.60
2023-03-26T08:53:48.528Z,96730.00
2023-03-26T08:56:46.732Z,96722.60
2023-03-26T08:59:47.235Z,96713.60
2023-03-26T09:02:26.629Z,96706.00
2023-03-26T09:05:46.179Z,96697.80
2023-03-26T09:08:37.076Z,96687.60
2023-03-26T09:12:08.121Z,96681.00
2023-03-26T09:15:21.002Z,96672.80
2023-03-26T09:18:18.418Z,96669.20
2023-03-26T09:21:12.569Z,96668.40
2023-03-26T09:23:52.753Z,96660.40
2023-03-26T09:26:57.693Z,96655.40
2023-03-26T09:29:49.093Z,96642.80
2023-03-26T09:32:34.147Z,96636.00
2023-03-26T09:35:30.998Z,96630.20
2023-03-26T09:38:19.414Z,96622.80
2023-03-26T09:41:13.763Z,96613.40
2023-03-26T09:44:27.879Z,96606.80
2023-03-26T09:47:38.359Z,96592.40
2023-03-26T09:50:35.603Z,96585.40
2023-03-26T09:53:37.364Z,96578.20
2023-03-26T09:56:25.805Z,96565.60
2023-03-26T09:59:16.832Z,96552.40
2023-03-26T10:02:45.615Z,96546.80
2023-03-26T10:06:21.263Z,96538.00
2023-03-26T10:09:31.708Z,96530.20
2023-03-26T10:12:48.385Z,96526.40
2023-03-26T10:15:59.444Z,96528.20
2023-03-26T10:19:04.499Z,96518.60
2023-03-26T10:21:36.827Z,96519.40
2023-03-26T10:24:41.075Z,96519.20
2023-03-26T10:27:35.222Z,96502.20
2023-03-26T10:30:36.489Z,96507.00
2023-03-26T10:33:37.648Z,96502.60
2023-03-26T10:36:34.896Z,96492.80
2023-03-26T10:39:37.085Z,96484.00
2023-03-26T10:42:47.657Z,96476.40
2023-03-26T10:46:25.540Z,96470.60
2023-03-26T10:49:13.038Z,96458.80
2023-03-26T10:51:58.198Z,96449.20
2023-03-26T10:54:43.499Z,96449.20
2023-03-26T10:57:31.332Z,96441.40
2023-03-26T11:00:25.043Z,96437.40
2023-03-26T11:03:30.753Z,96434.00
2023-03-26T11:06:46.340Z,96422.40
2023-03-26T11:09:23.870Z,96414.40
2023-03-26T11:12:26.519Z,96406.60
2023-03-26T11:15:13.114Z,96396.20
2023-03-26T11:18:04.311Z,96392.40
2023-03-26T11:21:18.711Z,96388.20
2023-03-26T11:24:04.436Z,96384.20
2023-03-26T11:27:15.566Z,96383.80
2023-03-26T11:29:56.846Z,96388.00
2023-03-26T11:32:41.796Z,96392.40
2023-03-26T11:35:39.783Z,96397.20
2023-03-26T11:38:38.799Z,96390.80
2023-03-26T11:41:27.275Z,96386.00
2023-03-26T11:44:15.708Z,96376.20
2023-03-26T11:46:47.459Z,96373.00
2023-03-26T11:49:19.751Z,96372.20
2023-03-26T11:51:49.055Z,96373.60
2023-03-26T11:54:16.463Z,96374.80
2023-03-26T11:57:08.641Z,96369.00
2023-03-26T11:59:56.429Z,96378.60
2023-03-26T12:02:35.612Z,96380.60
2023-03-26T12:05:24.891Z,96376.20
2023-03-26T12:08:00.798Z,96378.40
2023-03-26T12:10:38.875Z,96383.40
2023-03-26T12:13:36.529Z,96391.40
2023-03-26T12:16:20.000Z,96394.60
2023-03-26T12:19:00.467Z,96404.40
2023-03-26T12:21:27.527Z,96419.40
2023-03-26T12:24:04.337Z,96427.00
2023-03-26T12:26:45.001Z,96442.80
2023-03-26T12:29:17.105Z,96449.40
2023-03-26T12:31:51.128Z,96449.60
2023-03-26T12:34:21.621Z,96447.20
2023-03-26T12:36:55.231Z,96441.00
2023-03-26T12:40:10.698Z,96423.20
2023-03-26T12:44:44.118Z,96405.60
2023-03-26T12:45:29.512Z,96406.20
2023-03-26T12:48:03.959Z,96399.80
2023-03-26T12:50:57.543Z,96391.20
2023-03-26T12:53:42.226Z,96399.20
2023-03-26T12:56:19.995Z,96393.20
2023-03-26T12:59:09.210Z,96397.80
2023-03-26T13:02:21.856Z,96403.40
2023-03-26T13:05:22.454Z,96405.40
2023-03-26T13:08:10.549Z,96401.20
2023-03-26T13:11:00.850Z,96404.00
2023-03-26T13:14:01.972Z,96402.40
2023-03-26T13:16:44.023Z,96400.80
2023-03-26T13:19:42.036Z,96402.40
2023-03-26T13:22:38.877Z,96404.20
2023-03-26T13:25:47.861Z,96401.00
2023-03-26T13:29:08.347Z,96394.00
2023-03-26T13:31:58.027Z,96391.80
2023-03-26T13:34:42.814Z,96394.40
2023-03-26T13:37:17.671Z,96393.20
2023-03-26T13:39:59.121Z,96389.40
2023-03-26T13:43:06.554Z,96390.40
2023-03-26T13:45:42.181Z,96381.80
2023-03-26T13:48:25.709Z,96378.80
2023-03-26T13:51:14.676Z,96378.80
2023-03-26T13:54:02.808Z,96383.40
2023-03-26T13:56:43.276Z,96387.80
2023-03-26T13:59:22.398Z,96389.40
2023-03-26T14:02:03.802Z,96383.20
2023-03-26T14:04:43.882Z,96391.60
2023-03-26T14:07:23.407Z,96389.00
2023-03-26T14:10:12.468Z,96403.00
2023-03-26T14:13:00.708Z,96391.00
2023-03-26T14:15:42.126Z,96373.40
2023-03-26T14:18:35.897Z,96363.60
2023-03-26T14:21:37.068Z,96352.80
2023-03-26T14:24:53.627Z,96351.00
2023-03-26T14:27:43.151Z,96340.00
2023-03-26T14:30:40.103Z,96339.80
2023-03-26T14:33:41.304Z,96336.60
2023-03-26T14:36:43.440Z,96343.20
2023-03-26T14:39:30.289Z,96354.20
2023-03-26T14:42:06.208Z,96360.40
2023-03-26T14:45:02.444Z,96356.80
2023-03-26T14:47:30.899Z,96360.40
2023-03-26T14:50:46.767Z,96360.60
2023-03-26T14:53:33.465Z,96385.00
2023-03-26T14:56:29.767Z,96385.20
2023-03-26T14:59:57.023Z,96371.00
2023-03-26T15:02:42.118Z,96362.00
2023-03-26T15:06:16.009Z,96351.40
2023-03-26T15:09:18.795Z,96343.20
2023-03-26T15:12:12.897Z,96342.80
2023-03-26T15:15:26.412Z,96326.60
2023-03-26T15:18:23.370Z,96320.40
2023-03-26T15:21:13.978Z,96318.20
2023-03-26T15:24:14.918Z,96317.20
2023-03-26T15:27:12.618Z,96316.20
2023-03-26T15:30:07.373Z,96311.40
2023-03-26T15:33:18.052Z,96307.20
2023-03-26T15:36:28.956Z,96308.00
2023-03-26T15:39:59.937Z,96306.80
2023-03-26T15:43:01.727Z,96309.40
2023-03-26T15:45:56.232Z,96306.20
2023-03-26T15:48:46.037Z,96309.20
2023-03-26T15:51:46.711Z,96300.60
2023-03-26T15:54:30.454Z,96299.60
2023-03-26T15:57:17.433Z,96296.20
2023-03-26T16:00:19.543Z,96294.80
2023-03-26T16:03:10.151Z,96296.40
2023-03-26T16:06:02.340Z,96299.40
2023-03-26T16:08:53.010Z,96297.00
2023-03-26T16:11:52.154Z,96300.80
2023-03-26T16:14:23.340Z,96307.20
2023-03-26T16:16:57.833Z,96305.80
2023-03-26T16:20:19.258Z,96309.80
2023-03-26T16:22:51.965Z,96304.60
2023-03-26T16:25:29.531Z,96283.00
2023-03-26T16:28:36.178Z,96286.60
2023-03-26T16:31:23.401Z,96281.80
2023-03-26T16:34:10.198Z,96284.20
2023-03-26T16:36:41.887Z,96283.20
2023-03-26T16:39:08.510Z,96286.80
2023-03-26T16:41:50.216Z,96281.20
2023-03-26T16:44:43.470Z,96282.60
2023-03-26T16:47:41.458Z,96283.40
2023-03-26T16:50:26.042Z,96281.20
2023-03-26T16:53:07.591Z,96278.80
2023-03-26T16:55:59.238Z,96277.40
2023-03-26T16:59:06.800Z,96277.60
2023-03-26T17:01:58.348Z,96281.60
2023-03-26T17:04:31.313Z,96284.80
2023-03-26T17:07:16.926Z,96282.60
2023-03-26T17:10:32.690Z,96290.20
2023-03-26T17:13:41.245Z,96292.00
2023-03-26T17:16:41.246Z,96287.60
2023-03-26T17:19:14.019Z,96287.00
2023-03-26T17:22:11.397Z,96289.60
2023-03-26T17:24:53.021Z,96292.40
2023-03-26T17:28:05.946Z,96289.20
2023-03-26T17:31:20.139Z,96290.20
2023-03-26T17:33:47.912Z,96289.20
2023-03-26T17:36:31.121Z,96281.20
2023-03-26T17:39:04.808Z,96277.00
2023-03-26T17:42:03.313Z,96270.80
2023-03-26T17:44:58.280Z,96262.60
2023-03-26T17:47:43.705Z,96258.20
2023-03-26T17:50:22.676Z,96254.80
2023-03-26T17:52:54.388Z,96257.60
2023-03-26T17:55:30.512Z,96260.40
2023-03-26T17:58:07.647Z,96267.60
2023-03-26T18:00:43.146Z,96278.40
2023-03-26T18:03:35.177Z,96278.20
2023-03-26T18:06:16.564Z,96279.00
2023-03-26T18:08:55.165Z,96278.40
2023-03-26T18:12:04.882Z,96270.60
2023-03-26T18:15:04.148Z,96254.60
2023-03-26T18:17:40.278Z,96252.20
2023-03-26T18:20:19.478Z,96246.80
2023-03-26T18:22:46.234Z,96248.80
2023-03-26T18:25:33.908Z,96237.00
2023-03-26T18:28:04.584Z,96233.00
2023-03-26T18:30:31.233Z,96233.00
2023-03-26T18:33:25.994Z,96234.00
2023-03-26T18:35:56.849Z,96234.60
2023-03-26T18:38:35.746Z,96235.00
2023-03-26T18:41:15.775Z,96238.80
2023-03-26T18:43:44.498Z,96238.60
2023-03-26T18:46:16.789Z,96235.60
2023-03-26T18:48:44.247Z,96233.20
2023-03-26T18:51:11.083Z,96227.20
2023-03-26T18:53:47.686Z,96223.00
2023-03-26T18:56:33.841Z,96218.40
2023-03-26T18:59:05.208Z,96212.00
2023-03-26T19:01:36.542Z,96209.00
2023-03-26T19:04:08.667Z,96213.20
2023-03-26T19:06:41.175Z,96213.60
2023-03-26T19:09:27.907Z,96216.40
2023-03-26T19:12:16.139Z,96209.40
2023-03-26T19:15:05.982Z,96200.80
2023-03-26T19:17:40.014Z,96192.40
2023-03-26T19:20:17.755Z,96193.80
2023-03-26T19:22:47.652Z,96194.20
2023-03-26T19:25:43.424Z,96188.60
2023-03-26T19:28:25.747Z,96182.60
2023-03-26T19:30:57.706Z,96176.00
2023-03-26T19:33:34.242Z,96168.80
2023-03-26T19:36:31.554Z,96166.00
2023-03-26T19:39:02.090Z,96158.60
2023-03-26T19:41:42.598Z,96156.80
2023-03-26T19:44:25.701Z,96162.40
2023-03-26T19:46:52.727Z,96161.00
2023-03-26T19:49:49.638Z,96158.40
2023-03-26T19:52:32.758Z,96152.80
2023-03-26T19:55:04.109Z,96152.80
2023-03-26T19:57:34.665Z,96154.60
2023-03-26T20:00:01.345Z,96153.40
2023-03-26T20:02:28.328Z,96150.60
2023-03-26T20:04:55.186Z,96152.80
2023-03-26T20:07:35.370Z,96148.00
2023-03-26T20:10:05.942Z,96142.20
2023-03-26T20:12:33.151Z,96146.80
2023-03-26T20:15:01.876Z,96149.60
2023-03-26T20:17:30.869Z,96148.40
2023-03-26T20:19:57.690Z,96145.80
2023-03-26T20:22:25.179Z,96141.00
2023-03-26T20:24:51.783Z,96146.80
2023-03-26T20:27:19.339Z,96149.60
2023-03-26T20:29:46.544Z,96151.20
2023-03-26T20:32:26.341Z,96146.00
2023-03-26T20:34:54.177Z,96145.00
2023-03-26T20:37:20.916Z,96140.80
2023-03-26T20:39:47.528Z,96141.80
2023-03-26T20:42:17.091Z,96141.20
2023-03-26T20:44:43.745Z,96136.80
2023-03-26T20:47:11.680Z,96137.20
2023-03-26T20:49:38.887Z,96134.60
2023-03-26T20:52:05.999Z,96140.80
2023-03-26T20:54:32.859Z,96132.20
2023-03-26T20:56:59.606Z,96137.40
2023-03-26T20:59:28.035Z,96134.60
2023-03-26T21:01:57.981Z,96139.00
2023-03-26T21:04:26.274Z,96135.40
2023-03-26T21:07:00.243Z,96134.60
2023-03-26T21:09:35.467Z,96133.00
2023-03-26T21:12:26.517Z,96133.20
2023-03-26T21:14:56.115Z,96132.60
2023-03-26T21:17:23.624Z,96134.00
2023-03-26T21:19:51.954Z,96141.40
2023-03-26T21:22:45.059Z,96136.40
2023-03-26T21:25:38.990Z,96142.40
2023-03-26T21:28:42.370Z,96139.60
2023-03-26T21:31:20.362Z,96141.40
2023-03-26T21:33:49.383Z,96147.20
2023-03-26T21:36:19.689Z,96146.60
2023-03-26T21:38:47.396Z,96146.00
2023-03-26T21:41:23.115Z,96154.80
2023-03-26T21:43:51.462Z,96158.80
2023-03-26T21:46:18.891Z,96167.80
2023-03-26T21:48:46.257Z,96170.20
2023-03-26T21:51:19.289Z,96172.80
2023-03-26T21:53:46.898Z,96164.80
2023-03-26T21:56:40.917Z,96159.20
2023-03-26T21:59:26.531Z,96161.80
2023-03-26T22:02:10.401Z,96161.80
2023-03-26T22:04:53.794Z,96160.00
2023-03-26T22:07:53.252Z,96162.40
2023-03-26T22:10:20.977Z,96156.20
2023-03-26T22:12:47.782Z,96156.00
2023-03-26T22:15:14.875Z,96153.60
2023-03-26T22:17:42.754Z,96161.20
2023-03-26T22:20:13.343Z,96166.60
2023-03-26T22:22:48.904Z,96171.40
2023-03-26T22:25:17.832Z,96174.80
2023-03-26T22:27:49.006Z,96173.00
2023-03-26T22:30:16.400Z,96176.60
2023-03-26T22:32:44.737Z,96180.00
2023-03-26T22:35:12.917Z,96178.60
2023-03-26T22:37:40.552Z,96180.00
2023-03-26T22:40:09.126Z,96174.80
2023-03-26T22:42:36.792Z,96170.60
2023-03-26T22:45:04.607Z,96172.20
2023-03-26T22:47:34.297Z,96171.40
2023-03-26T22:50:03.589Z,96175.20
2023-03-26T22:52:31.404Z,96171.60
2023-03-26T22:54:58.233Z,96172.40
2023-03-26T22:57:25.711Z,96172.80
2023-03-26T22:59:52.954Z,96176.40
2023-03-26T23:02:20.632Z,96170.60
2023-03-26T23:04:48.709Z,96167.20
2023-03-26T23:07:15.645Z,96164.20
2023-03-26T23:09:42.218Z,96161.40
2023-03-26T23:12:08.838Z,96156.60
2023-03-26T23:14:36.251Z,96153.60
2023-03-26T23:17:02.888Z,96156.40
2023-03-26T23:19:30.151Z,96157.00
2023-03-26T23:21:57.554Z,96161.60
2023-03-26T23:24:26.588Z,96168.00
2023-03-26T23:26:53.394Z,96170.00
2023-03-26T23:29:20.086Z,96165.20
2023-03-26T23:31:47.344Z,96160.60
2023-03-26T23:34:14.319Z,96160.60
2023-03-26T23:36:41.876Z,96155.60
2023-03-26T23:39:09.307Z,96154.60
2023-03-26T23:41:36.820Z,96152.40
2023-03-26T23:44:04.140Z,96149.40
2023-03-26T23:46:33.140Z,96146.00
2023-03-26T23:49:02.336Z,96148.40
2023-03-26T23:51:30.553Z,96148.60
2023-03-26T23:53:57.890Z,96147.40
2023-03-26T23:56:24.557Z,96145.80
2023-03-26T23:58:51.248Z,96142.60
